createdAt,value
2018-04-26T00:00:07.288Z,8.45
2018-04-26T00:02:35.711Z,8.41
2018-04-26T00:05:03.991Z,8.38
2018-04-26T00:07:32.285Z,8.31
2018-04-26T00:10:00.527Z,8.20
2018-04-26T00:12:28.954Z,8.16
2018-04-26T00:14:57.218Z,8.37
2018-04-26T00:17:25.840Z,8.34
2018-04-26T00:19:54.138Z,8.45
2018-04-26T00:22:23.094Z,8.18
2018-04-26T00:24:51.402Z,8.26
2018-04-26T00:27:19.692Z,8.38
2018-04-26T00:29:47.937Z,8.45
2018-04-26T00:32:16.230Z,8.36
2018-04-26T00:34:44.469Z,8.13
2018-04-26T00:37:12.754Z,8.09
2018-04-26T00:39:41.097Z,8.03
2018-04-26T00:42:09.551Z,7.94
2018-04-26T00:44:37.798Z,8.01
2018-04-26T00:47:06.105Z,8.03
2018-04-26T00:49:34.344Z,7.90
2018-04-26T00:52:02.632Z,7.95
2018-04-26T00:54:30.942Z,7.72
2018-04-26T00:56:59.237Z,7.73
2018-04-26T00:59:27.506Z,7.73
2018-04-26T01:01:56.055Z,7.81
2018-04-26T01:04:24.310Z,7.83
2018-04-26T01:06:52.638Z,7.78
2018-04-26T01:09:20.898Z,7.53
2018-04-26T01:11:49.184Z,7.52
2018-04-26T01:14:17.458Z,7.40
2018-04-26T01:16:45.758Z,7.45
2018-04-26T01:19:14.145Z,7.49
2018-04-26T01:21:42.563Z,7.53
2018-04-26T01:24:11.018Z,7.59
2018-04-26T01:26:39.295Z,7.63
2018-04-26T01:29:07.575Z,7.39
2018-04-26T01:31:35.871Z,7.21
2018-04-26T01:34:04.450Z,7.25
2018-04-26T01:36:41.670Z,7.13
2018-04-26T01:39:09.946Z,7.16
2018-04-26T01:41:38.235Z,7.02
2018-04-26T01:44:06.615Z,6.99
2018-04-26T01:46:35.115Z,6.89
2018-04-26T01:49:03.797Z,7.01
2018-04-26T01:51:32.090Z,6.94
2018-04-26T01:54:00.629Z,6.87
2018-04-26T01:56:28.936Z,6.74
2018-04-26T01:58:57.186Z,6.68
2018-04-26T02:01:25.462Z,6.69
2018-04-26T02:03:53.767Z,6.73
2018-04-26T02:06:22.051Z,6.66
2018-04-26T02:08:50.339Z,6.57
2018-04-26T02:11:18.818Z,6.56
2018-04-26T02:13:47.101Z,6.52
2018-04-26T02:16:15.394Z,6.51
2018-04-26T02:18:44.551Z,6.50
2018-04-26T02:21:12.961Z,6.48
2018-04-26T02:23:41.975Z,6.51
2018-04-26T02:26:10.267Z,6.36
2018-04-26T02:28:38.622Z,6.47
2018-04-26T02:31:06.906Z,6.48
2018-04-26T02:33:35.259Z,6.43
2018-04-26T02:36:03.651Z,6.50
2018-04-26T02:38:32.074Z,6.46
2018-04-26T02:41:03.164Z,6.49
2018-04-26T02:43:31.524Z,6.61
2018-04-26T02:45:59.818Z,6.60
2018-04-26T02:48:28.102Z,6.54
2018-04-26T02:50:56.379Z,6.56
2018-04-26T02:53:24.694Z,6.63
2018-04-26T02:55:53.300Z,6.56
2018-04-26T02:58:21.940Z,6.60
2018-04-26T03:00:50.287Z,6.57
2018-04-26T03:03:18.563Z,6.56
2018-04-26T03:05:46.846Z,6.55
2018-04-26T03:08:15.378Z,6.58
2018-04-26T03:10:43.867Z,6.56
2018-04-26T03:13:12.120Z,6.49
2018-04-26T03:15:40.383Z,6.43
2018-04-26T03:18:08.790Z,6.51
2018-04-26T03:20:37.087Z,6.53
2018-04-26T03:23:05.519Z,6.41
2018-04-26T03:25:33.967Z,6.38
2018-04-26T03:28:02.301Z,6.32
2018-04-26T03:30:31.012Z,6.30
2018-04-26T03:32:59.274Z,6.31
2018-04-26T03:35:27.567Z,6.29
2018-04-26T03:37:56.341Z,6.20
2018-04-26T03:40:24.877Z,6.32
2018-04-26T03:42:53.130Z,6.26
2018-04-26T03:45:22.146Z,6.46
2018-04-26T03:47:50.400Z,6.37
2018-04-26T03:50:18.960Z,6.33
2018-04-26T03:52:47.423Z,6.36
2018-04-26T03:55:15.855Z,6.38
2018-04-26T03:57:44.815Z,6.43
2018-04-26T04:05:26.693Z,6.58
2018-04-26T04:07:54.962Z,6.77
2018-04-26T04:10:23.269Z,6.80
2018-04-26T04:12:51.568Z,6.89
2018-04-26T04:15:19.850Z,6.95
2018-04-26T04:17:48.135Z,7.08
2018-04-26T04:20:16.426Z,7.19
2018-04-26T04:22:44.691Z,7.22
2018-04-26T04:25:13.024Z,7.24
2018-04-26T04:27:41.294Z,7.26
2018-04-26T04:30:09.598Z,7.35
2018-04-26T04:32:38.044Z,7.48
2018-04-26T04:35:06.346Z,7.58
2018-04-26T04:37:34.731Z,7.60
2018-04-26T04:40:02.979Z,7.81
2018-04-26T04:42:32.002Z,8.03
2018-04-26T04:45:00.269Z,8.08
2018-04-26T04:47:29.846Z,8.08
2018-04-26T04:49:59.711Z,8.17
2018-04-26T04:52:28.749Z,8.45
2018-04-26T04:54:57.404Z,8.43
2018-04-26T04:57:26.636Z,8.43
2018-04-26T04:59:56.292Z,8.43
2018-04-26T05:02:25.115Z,8.52
2018-04-26T05:04:53.685Z,8.60
2018-04-26T05:07:22.958Z,8.53
2018-04-26T05:09:53.699Z,8.61
2018-04-26T05:12:22.456Z,8.43
2018-04-26T05:14:50.918Z,8.50
2018-04-26T05:17:19.278Z,8.67
2018-04-26T05:19:47.778Z,8.53
2018-04-26T05:22:16.523Z,8.47
2018-04-26T05:24:45.069Z,8.52
2018-04-26T05:27:13.756Z,8.58
2018-04-26T05:29:45.949Z,8.76
2018-04-26T05:32:15.098Z,8.84
2018-04-26T05:34:43.548Z,8.86
2018-04-26T05:37:11.920Z,9.03
2018-04-26T05:39:40.226Z,9.11
2018-04-26T05:42:08.919Z,9.25
2018-04-26T05:44:37.326Z,9.19
2018-04-26T05:47:05.843Z,9.24
2018-04-26T05:49:34.112Z,9.43
2018-04-26T05:52:02.687Z,9.34
2018-04-26T05:54:31.634Z,9.32
2018-04-26T05:57:00.316Z,9.38
2018-04-26T05:59:28.643Z,9.44
2018-04-26T06:01:57.063Z,9.46
2018-04-26T06:04:25.317Z,9.46
2018-04-26T06:06:53.647Z,9.37
2018-04-26T06:09:21.909Z,9.42
2018-04-26T06:11:50.231Z,9.40
2018-04-26T06:14:18.515Z,9.40
2018-04-26T06:16:46.851Z,9.57
2018-04-26T06:19:15.092Z,9.65
2018-04-26T06:21:43.463Z,9.80
2018-04-26T06:24:11.719Z,9.81
2018-04-26T06:26:40.103Z,9.84
2018-04-26T06:29:08.347Z,9.85
2018-04-26T06:31:36.692Z,9.98
2018-04-26T06:34:05.143Z,10.05
2018-04-26T06:36:33.492Z,9.87
2018-04-26T06:39:01.850Z,9.95
2018-04-26T06:41:30.208Z,10.12
2018-04-26T06:43:58.496Z,9.96
2018-04-26T06:46:26.809Z,9.98
2018-04-26T06:48:55.079Z,9.92
2018-04-26T06:51:23.418Z,9.96
2018-04-26T06:53:51.696Z,9.75
2018-04-26T06:56:20.440Z,9.87
2018-04-26T06:58:48.711Z,9.77
2018-04-26T07:01:17.191Z,9.75
2018-04-26T07:03:46.026Z,9.70
2018-04-26T07:06:14.358Z,9.58
2018-04-26T07:08:42.655Z,9.58
2018-04-26T07:11:11.314Z,9.63
2018-04-26T07:13:39.906Z,9.74
2018-04-26T07:16:08.779Z,9.79
2018-04-26T07:18:37.044Z,9.99
2018-04-26T07:21:05.375Z,10.12
2018-04-26T07:23:33.708Z,10.06
2018-04-26T07:26:02.093Z,9.85
2018-04-26T07:28:30.370Z,10.10
2018-04-26T07:30:59.608Z,10.59
2018-04-26T07:33:27.870Z,11.14
2018-04-26T07:35:56.174Z,11.12
2018-04-26T07:38:24.575Z,11.32
2018-04-26T07:40:53.144Z,11.35
2018-04-26T07:43:21.413Z,11.66
2018-04-26T07:45:49.745Z,11.96
2018-04-26T07:48:25.155Z,12.03
2018-04-26T07:50:53.613Z,12.32
2018-04-26T07:53:21.879Z,12.09
2018-04-26T07:55:50.180Z,12.30
2018-04-26T07:58:18.441Z,12.42
2018-04-26T08:00:46.762Z,12.47
2018-04-26T08:03:21.546Z,12.65
2018-04-26T08:05:49.904Z,12.61
2018-04-26T08:08:18.151Z,12.96
2018-04-26T08:10:46.463Z,13.65
2018-04-26T08:13:14.782Z,13.71
2018-04-26T08:15:43.323Z,13.49
2018-04-26T08:18:11.759Z,13.09
2018-04-26T08:20:40.267Z,12.88
2018-04-26T08:23:08.576Z,12.65
2018-04-26T08:25:36.889Z,12.22
2018-04-26T08:28:05.288Z,12.23
2018-04-26T08:30:33.625Z,12.30
2018-04-26T08:33:01.894Z,12.50
2018-04-26T08:35:30.285Z,12.77
2018-04-26T08:37:58.818Z,13.04
2018-04-26T08:40:27.162Z,13.17
2018-04-26T08:42:55.539Z,12.74
2018-04-26T08:45:23.839Z,12.31
2018-04-26T08:47:52.307Z,12.08
2018-04-26T08:50:20.795Z,11.99
2018-04-26T08:52:49.118Z,11.66
2018-04-26T08:55:17.559Z,11.69
2018-04-26T08:57:45.842Z,11.81
2018-04-26T09:00:14.183Z,11.35
2018-04-26T09:02:42.455Z,11.22
2018-04-26T09:05:10.794Z,11.02
2018-04-26T09:07:39.077Z,10.58
2018-04-26T09:10:07.583Z,10.00
2018-04-26T09:12:35.837Z,9.70
2018-04-26T09:15:04.175Z,9.49
2018-04-26T09:17:32.613Z,9.40
2018-04-26T09:20:00.868Z,9.60
2018-04-26T09:22:29.202Z,9.39
2018-04-26T09:24:57.816Z,9.43
2018-04-26T09:27:26.166Z,9.34
2018-04-26T09:29:54.591Z,9.33
2018-04-26T09:32:22.882Z,9.49
2018-04-26T09:34:51.151Z,10.02
2018-04-26T09:37:19.500Z,10.56
2018-04-26T09:39:47.839Z,10.69
2018-04-26T09:42:16.207Z,10.89
2018-04-26T09:44:44.491Z,10.81
2018-04-26T09:47:12.814Z,11.01
2018-04-26T09:49:41.098Z,10.75
2018-04-26T09:52:09.394Z,10.47
2018-04-26T09:54:37.670Z,10.79
2018-04-26T09:57:05.963Z,11.19
2018-04-26T09:59:34.213Z,11.30
2018-04-26T10:02:03.530Z,11.32
2018-04-26T10:04:35.938Z,12.03
2018-04-26T10:07:04.309Z,12.27
2018-04-26T10:09:32.540Z,12.29
2018-04-26T10:12:00.899Z,12.11
2018-04-26T10:14:29.190Z,11.91
2018-04-26T10:16:57.574Z,12.18
2018-04-26T10:19:25.846Z,12.18
2018-04-26T10:21:54.175Z,12.76
2018-04-26T10:24:22.487Z,12.94
2018-04-26T10:26:50.806Z,12.88
2018-04-26T10:29:19.118Z,12.40
2018-04-26T10:31:47.419Z,12.34
2018-04-26T10:34:15.679Z,12.62
2018-04-26T10:36:43.987Z,12.36
2018-04-26T10:39:12.291Z,12.21
2018-04-26T10:41:40.637Z,13.14
2018-04-26T10:44:09.070Z,13.57
2018-04-26T10:46:37.370Z,13.53
2018-04-26T10:49:05.654Z,13.42
2018-04-26T10:51:33.979Z,12.79
2018-04-26T10:54:02.284Z,12.56
2018-04-26T10:56:30.613Z,12.14
2018-04-26T10:58:58.950Z,12.30
2018-04-26T11:01:27.271Z,12.36
2018-04-26T11:03:55.576Z,12.77
2018-04-26T11:06:23.909Z,13.93
2018-04-26T11:08:52.159Z,13.94
2018-04-26T11:11:20.686Z,13.44
2018-04-26T11:13:49.995Z,13.25
2018-04-26T11:16:18.406Z,12.99
2018-04-26T11:18:46.843Z,12.94
2018-04-26T11:21:15.195Z,12.46
2018-04-26T11:23:43.405Z,12.36
2018-04-26T11:26:11.730Z,12.49
2018-04-26T11:28:39.967Z,12.41
2018-04-26T11:31:08.642Z,12.66
2018-04-26T11:33:37.087Z,14.60
2018-04-26T11:36:05.435Z,16.10
2018-04-26T11:38:33.690Z,14.46
2018-04-26T11:41:02.012Z,14.34
2018-04-26T11:43:30.255Z,15.96
2018-04-26T11:45:58.563Z,16.55
2018-04-26T11:48:26.815Z,16.17
2018-04-26T11:50:55.240Z,15.34
2018-04-26T11:53:23.482Z,14.47
2018-04-26T11:55:51.803Z,14.98
2018-04-26T11:58:20.107Z,14.89
2018-04-26T12:00:48.779Z,15.51
2018-04-26T12:03:18.239Z,14.83
2018-04-26T12:05:46.559Z,14.46
2018-04-26T12:08:14.846Z,15.46
2018-04-26T12:10:43.175Z,16.11
2018-04-26T12:13:11.525Z,15.10
2018-04-26T12:15:39.764Z,14.66
2018-04-26T12:18:08.039Z,14.73
2018-04-26T12:20:36.396Z,14.17
2018-04-26T12:23:04.812Z,14.02
2018-04-26T12:25:33.109Z,13.55
2018-04-26T12:28:01.411Z,13.50
2018-04-26T12:30:29.751Z,17.63
2018-04-26T12:32:58.539Z,16.13
2018-04-26T12:35:26.961Z,14.60
2018-04-26T12:37:55.858Z,14.40
2018-04-26T12:40:24.196Z,13.90
2018-04-26T12:42:52.478Z,13.79
2018-04-26T12:45:20.795Z,13.79
2018-04-26T12:47:49.298Z,13.95
2018-04-26T12:50:17.634Z,14.12
2018-04-26T12:52:45.928Z,20.02
2018-04-26T12:55:14.244Z,19.81
2018-04-26T12:57:43.343Z,16.66
2018-04-26T13:00:11.659Z,17.83
2018-04-26T13:02:40.108Z,15.15
2018-04-26T13:05:08.455Z,15.96
2018-04-26T13:07:36.809Z,19.79
2018-04-26T13:10:05.222Z,21.80
2018-04-26T13:12:33.723Z,20.07
2018-04-26T13:15:01.944Z,16.70
2018-04-26T13:17:30.533Z,17.11
2018-04-26T13:19:58.937Z,22.40
2018-04-26T13:22:27.599Z,21.88
2018-04-26T13:24:55.925Z,17.11
2018-04-26T13:27:25.661Z,16.05
2018-04-26T13:29:54.346Z,16.75
2018-04-26T13:32:22.720Z,14.99
2018-04-26T13:34:50.974Z,15.55
2018-04-26T13:37:19.287Z,14.75
2018-04-26T13:39:47.637Z,14.07
2018-04-26T13:42:15.955Z,17.79
2018-04-26T13:44:44.483Z,19.88
2018-04-26T13:47:12.826Z,22.59
2018-04-26T13:49:41.112Z,21.96
2018-04-26T13:52:09.468Z,22.71
2018-04-26T13:54:37.772Z,23.28
2018-04-26T13:57:06.205Z,20.74
2018-04-26T13:59:34.471Z,22.42
2018-04-26T14:02:02.956Z,23.71
2018-04-26T14:04:31.240Z,17.92
2018-04-26T14:06:59.640Z,16.59
2018-04-26T14:09:27.968Z,15.75
2018-04-26T14:11:56.299Z,19.32
2018-04-26T14:14:24.705Z,17.48
2018-04-26T14:16:53.194Z,19.81
2018-04-26T14:19:21.837Z,17.39
2018-04-26T14:21:50.419Z,16.70
2018-04-26T14:24:18.678Z,17.81
2018-04-26T14:26:47.131Z,16.71
2018-04-26T14:29:15.472Z,21.87
2018-04-26T14:31:43.834Z,17.56
2018-04-26T14:34:12.212Z,17.51
2018-04-26T14:36:40.606Z,16.96
2018-04-26T14:39:08.878Z,17.03
2018-04-26T14:41:37.395Z,16.10
2018-04-26T14:44:06.578Z,15.70
2018-04-26T14:46:34.926Z,15.41
2018-04-26T14:49:03.180Z,14.77
2018-04-26T14:51:31.494Z,14.42
2018-04-26T14:54:00.175Z,14.23
2018-04-26T14:56:28.479Z,14.14
2018-04-26T14:58:56.755Z,14.02
2018-04-26T15:01:25.070Z,13.45
2018-04-26T15:03:53.517Z,12.77
2018-04-26T15:06:21.871Z,12.49
2018-04-26T15:08:50.579Z,12.24
2018-04-26T15:11:18.912Z,12.06
2018-04-26T15:13:47.205Z,11.81
2018-04-26T15:16:15.595Z,11.65
2018-04-26T15:18:43.920Z,11.68
2018-04-26T15:21:12.302Z,11.63
2018-04-26T15:23:40.939Z,11.85
2018-04-26T15:26:09.703Z,11.86
2018-04-26T15:28:39.720Z,11.40
2018-04-26T15:31:08.976Z,11.42
2018-04-26T15:33:37.278Z,11.41
2018-04-26T15:36:07.947Z,11.27
2018-04-26T15:38:38.385Z,11.33
2018-04-26T15:41:07.026Z,11.88
2018-04-26T15:43:35.703Z,12.12
2018-04-26T15:46:04.813Z,12.14
2018-04-26T15:48:34.017Z,12.13
2018-04-26T15:51:02.559Z,11.82
2018-04-26T15:54:41.280Z,12.05
2018-04-26T15:57:24.230Z,11.83
2018-04-26T16:00:04.195Z,12.10
2018-04-26T16:02:45.281Z,12.09
2018-04-26T16:05:27.537Z,12.14
2018-04-26T16:08:11.340Z,12.07
2018-04-26T16:10:55.157Z,12.07
2018-04-26T16:15:03.968Z,11.95
2018-04-26T16:19:49.447Z,11.99
2018-04-26T16:22:48.123Z,11.85
2018-04-26T16:25:27.707Z,11.92
2018-04-26T16:31:03.840Z,12.12
2018-04-26T16:33:41.544Z,11.93
2018-04-26T16:36:17.907Z,11.86
2018-04-26T16:39:03.211Z,11.83
2018-04-26T16:41:37.943Z,11.67
2018-04-26T16:44:08.423Z,11.67
2018-04-26T16:46:37.614Z,11.64
2018-04-26T16:49:06.893Z,11.57
2018-04-26T16:51:35.314Z,11.42
2018-04-26T16:54:03.614Z,11.66
2018-04-26T16:56:32.158Z,11.82
2018-04-26T16:59:00.731Z,11.71
2018-04-26T17:01:29.854Z,11.68
2018-04-26T17:03:58.607Z,11.77
2018-04-26T17:06:27.483Z,11.81
2018-04-26T17:08:59.793Z,11.90
2018-04-26T17:11:28.492Z,11.77
2018-04-26T17:14:00.048Z,11.63
2018-04-26T17:16:30.339Z,11.57
2018-04-26T17:18:59.479Z,11.52
2018-04-26T17:21:30.464Z,11.44
2018-04-26T17:23:59.612Z,11.52
2018-04-26T17:26:28.187Z,11.41
2018-04-26T17:28:59.218Z,11.37
2018-04-26T17:31:28.634Z,11.28
2018-04-26T17:33:56.922Z,11.18
2018-04-26T17:36:25.527Z,11.14
2018-04-26T17:38:58.409Z,11.04
2018-04-26T17:41:28.846Z,10.99
2018-04-26T17:43:57.619Z,11.04
2018-04-26T17:46:25.923Z,10.94
2018-04-26T17:48:55.015Z,11.05
2018-04-26T17:51:24.268Z,11.05
2018-04-26T17:53:52.938Z,11.08
2018-04-26T17:56:21.361Z,11.08
2018-04-26T17:58:51.035Z,11.17
2018-04-26T18:01:19.542Z,11.11
2018-04-26T18:03:48.231Z,11.11
2018-04-26T18:06:18.412Z,11.02
2018-04-26T18:08:50.209Z,11.04
2018-04-26T18:11:19.739Z,11.17
2018-04-26T18:13:48.106Z,11.03
2018-04-26T18:16:16.563Z,10.90
2018-04-26T18:18:44.812Z,10.84
2018-04-26T18:21:13.380Z,10.83
2018-04-26T18:23:41.990Z,10.86
2018-04-26T18:26:10.369Z,10.75
2018-04-26T18:28:38.621Z,10.59
2018-04-26T18:31:07.879Z,10.51
2018-04-26T18:33:36.356Z,10.41
2018-04-26T18:36:08.050Z,10.36
2018-04-26T18:38:38.658Z,10.23
2018-04-26T18:41:08.195Z,10.14
2018-04-26T18:43:39.750Z,10.14
2018-04-26T18:46:09.490Z,10.08
2018-04-26T18:48:40.622Z,10.04
2018-04-26T18:51:09.165Z,9.72
2018-04-26T18:53:41.555Z,9.92
2018-04-26T18:56:10.322Z,9.74
2018-04-26T18:58:38.590Z,9.76
2018-04-26T19:01:08.806Z,9.70
2018-04-26T19:03:37.813Z,9.56
2018-04-26T19:06:06.538Z,9.61
2018-04-26T19:08:41.630Z,9.53
2018-04-26T19:11:18.433Z,9.46
2018-04-26T19:13:50.934Z,9.43
2018-04-26T19:16:22.322Z,9.36
2018-04-26T19:18:51.376Z,9.32
2018-04-26T19:21:21.985Z,9.25
2018-04-26T19:23:53.175Z,9.18
2018-04-26T19:26:21.487Z,9.16
2018-04-26T19:28:49.754Z,9.08
2018-04-26T19:31:18.075Z,9.06
2018-04-26T19:33:46.367Z,8.89
2018-04-26T19:36:14.684Z,8.81
2018-04-26T19:38:43.011Z,8.68
2018-04-26T19:41:11.314Z,8.77
2018-04-26T19:43:39.661Z,8.63
2018-04-26T19:46:08.178Z,8.52
2018-04-26T19:48:36.691Z,8.51
2018-04-26T19:51:07.003Z,8.51
2018-04-26T19:53:35.521Z,8.56
2018-04-26T19:56:04.634Z,8.54
2018-04-26T19:58:33.075Z,8.50
2018-04-26T20:01:02.012Z,8.49
2018-04-26T20:03:33.734Z,8.40
2018-04-26T20:06:02.660Z,8.53
2018-04-26T20:08:32.009Z,8.44
2018-04-26T20:11:01.350Z,8.44
2018-04-26T20:13:30.808Z,8.42
2018-04-26T20:16:03.648Z,8.46
2018-04-26T20:18:32.011Z,8.49
2018-04-26T20:21:00.315Z,8.51
2018-04-26T20:23:28.659Z,8.45
2018-04-26T20:25:57.030Z,8.40
2018-04-26T20:28:25.547Z,8.37
2018-04-26T20:30:53.995Z,8.41
2018-04-26T20:33:26.469Z,8.45
2018-04-26T20:35:56.844Z,8.43
2018-04-26T20:38:28.760Z,8.49
2018-04-26T20:40:57.647Z,8.49
2018-04-26T20:43:25.970Z,8.53
2018-04-26T20:45:54.291Z,8.50
2018-04-26T20:48:31.479Z,8.55
2018-04-26T20:51:03.004Z,8.48
2018-04-26T20:53:32.211Z,8.54
2018-04-26T20:56:00.562Z,8.57
2018-04-26T20:58:28.978Z,8.55
2018-04-26T21:00:57.294Z,8.70
2018-04-26T21:03:25.594Z,8.68
2018-04-26T21:05:55.138Z,8.64
2018-04-26T21:08:23.497Z,8.75
2018-04-26T21:10:51.871Z,8.81
2018-04-26T21:13:22.707Z,8.66
2018-04-26T21:15:52.488Z,8.74
2018-04-26T21:18:21.416Z,8.61
2018-04-26T21:20:52.733Z,8.66
2018-04-26T21:23:21.819Z,8.36
2018-04-26T21:25:50.270Z,8.62
2018-04-26T21:28:18.624Z,8.66
2018-04-26T21:30:46.933Z,8.64
2018-04-26T21:33:15.243Z,8.67
2018-04-26T21:35:43.764Z,8.52
2018-04-26T21:38:12.318Z,8.55
2018-04-26T21:40:40.719Z,8.45
2018-04-26T21:43:09.393Z,8.39
2018-04-26T21:45:37.662Z,8.44
2018-04-26T21:48:05.624Z,8.36
2018-04-26T21:50:39.143Z,8.37
2018-04-26T21:53:12.857Z,8.41
2018-04-26T21:55:46.569Z,8.36
2018-04-26T21:58:20.101Z,8.29
2018-04-26T22:00:54.003Z,8.26
2018-04-26T22:03:22.430Z,8.23
2018-04-26T22:05:50.890Z,8.28
2018-04-26T22:08:19.607Z,8.26
2018-04-26T22:10:47.916Z,8.17
2018-04-26T22:13:16.195Z,8.20
2018-04-26T22:15:44.483Z,8.20
2018-04-26T22:18:12.909Z,8.07
2018-04-26T22:20:41.213Z,8.02
2018-04-26T22:23:09.891Z,7.98
2018-04-26T22:25:38.202Z,7.86
2018-04-26T22:28:07.051Z,7.94
2018-04-26T22:30:35.336Z,7.79
2018-04-26T22:33:03.602Z,7.83
2018-04-26T22:35:31.899Z,7.93
2018-04-26T22:38:00.278Z,7.82
2018-04-26T22:40:28.564Z,7.79
2018-04-26T22:42:56.821Z,7.75
2018-04-26T22:45:25.087Z,7.67
2018-04-26T22:47:53.382Z,7.61
2018-04-26T22:50:23.348Z,7.56
2018-04-26T22:52:52.115Z,7.49
2018-04-26T22:55:20.437Z,7.46
2018-04-26T22:57:49.016Z,7.36
2018-04-26T23:00:17.366Z,7.37
2018-04-26T23:02:48.639Z,7.36
2018-04-26T23:05:16.983Z,7.40
2018-04-26T23:07:45.415Z,7.57
2018-04-26T23:10:13.915Z,7.73
2018-04-26T23:12:42.165Z,7.60
2018-04-26T23:15:10.663Z,7.51
2018-04-26T23:17:38.922Z,7.60
2018-04-26T23:20:08.460Z,7.73
2018-04-26T23:22:36.852Z,7.79
2018-04-26T23:25:05.219Z,7.80
2018-04-26T23:27:33.491Z,7.84
2018-04-26T23:30:01.739Z,7.84
2018-04-26T23:32:30.265Z,7.86
2018-04-26T23:34:58.506Z,7.94
2018-04-26T23:37:27.404Z,7.93
2018-04-26T23:39:55.863Z,7.74
2018-04-26T23:42:24.152Z,7.74
2018-04-26T23:44:52.393Z,7.61
2018-04-26T23:47:20.690Z,7.55
2018-04-26T23:49:48.948Z,7.39
2018-04-26T23:52:17.522Z,7.46
2018-04-26T23:54:45.758Z,7.43
2018-04-26T23:57:15.389Z,7.46
2018-04-26T23:59:44.349Z,7.40
